createdAt,value
2023-04-10T00:01:45.963Z,5.39
2023-04-10T00:04:12.512Z,5.33
2023-04-10T00:06:38.987Z,5.37
2023-04-10T00:09:05.349Z,5.19
2023-04-10T00:11:31.767Z,5.15
2023-04-10T00:13:58.125Z,5.35
2023-04-10T00:16:24.487Z,4.80
2023-04-10T00:18:50.929Z,4.70
2023-04-10T00:21:17.412Z,4.99
2023-04-10T00:23:43.833Z,5.06
2023-04-10T00:26:10.393Z,5.16
2023-04-10T00:28:38.027Z,4.84
2023-04-10T00:31:05.260Z,4.91
2023-04-10T00:33:31.600Z,4.95
2023-04-10T00:35:57.960Z,4.79
2023-04-10T00:38:24.513Z,4.62
2023-04-10T00:40:51.011Z,5.03
2023-04-10T00:43:20.112Z,4.85
2023-04-10T00:45:47.405Z,4.81
2023-04-10T00:48:15.658Z,4.87
2023-04-10T00:50:43.220Z,4.76
2023-04-10T00:53:09.713Z,4.88
2023-04-10T00:55:36.883Z,4.92
2023-04-10T00:58:03.437Z,4.69
2023-04-10T01:00:29.764Z,4.66
2023-04-10T01:02:56.292Z,4.81
2023-04-10T01:05:23.310Z,4.45
2023-04-10T01:08:02.602Z,4.37
2023-04-10T01:10:44.630Z,4.52
2023-04-10T01:13:32.691Z,4.75
2023-04-10T01:16:09.262Z,4.67
2023-04-10T01:18:46.217Z,4.75
2023-04-10T01:21:15.572Z,4.69
2023-04-10T01:24:19.636Z,4.71
2023-04-10T01:27:07.687Z,4.61
2023-04-10T01:29:36.556Z,4.58
2023-04-10T01:32:08.044Z,4.48
2023-04-10T01:34:45.029Z,4.23
2023-04-10T01:37:19.060Z,4.40
2023-04-10T01:39:50.346Z,4.40
2023-04-10T01:42:21.372Z,4.52
2023-04-10T01:44:50.186Z,4.55
2023-04-10T01:47:18.059Z,4.33
2023-04-10T01:49:47.037Z,4.25
2023-04-10T01:52:15.724Z,4.17
2023-04-10T01:54:48.755Z,4.35
2023-04-10T01:57:22.008Z,4.54
2023-04-10T01:59:54.582Z,4.38
2023-04-10T02:02:21.106Z,4.18
2023-04-10T02:04:51.456Z,4.30
2023-04-10T02:07:31.404Z,4.34
2023-04-10T02:10:19.009Z,4.44
2023-04-10T02:12:53.882Z,4.55
2023-04-10T02:15:24.117Z,4.23
2023-04-10T02:17:52.328Z,4.29
2023-04-10T02:20:18.884Z,4.10
2023-04-10T02:22:47.140Z,3.82
2023-04-10T02:25:14.639Z,3.92
2023-04-10T02:27:41.519Z,3.89
2023-04-10T02:30:08.415Z,4.01
2023-04-10T02:32:36.668Z,3.75
2023-04-10T02:35:03.476Z,3.90
2023-04-10T02:37:31.228Z,3.67
2023-04-10T02:40:00.152Z,3.91
2023-04-10T02:42:28.203Z,3.96
2023-04-10T02:44:58.466Z,4.08
2023-04-10T02:47:25.834Z,4.16
2023-04-10T02:49:52.259Z,4.16
2023-04-10T02:52:18.701Z,3.96
2023-04-10T02:54:46.208Z,4.15
2023-04-10T02:57:12.512Z,4.26
2023-04-10T02:59:38.992Z,3.90
2023-04-10T03:02:05.990Z,3.96
2023-04-10T03:04:35.485Z,3.75
2023-04-10T03:07:02.276Z,3.57
2023-04-10T03:09:28.856Z,3.86
2023-04-10T03:11:55.296Z,4.09
2023-04-10T03:14:21.641Z,3.73
2023-04-10T03:16:48.087Z,4.04
2023-04-10T03:19:14.529Z,3.94
2023-04-10T03:21:40.878Z,3.97
2023-04-10T03:24:07.326Z,3.89
2023-04-10T03:26:33.901Z,3.89
2023-04-10T03:29:00.490Z,4.00
2023-04-10T03:31:27.631Z,3.90
2023-04-10T03:33:57.357Z,3.97
2023-04-10T03:36:24.224Z,3.82
2023-04-10T03:38:52.645Z,3.80
2023-04-10T03:41:19.005Z,3.53
2023-04-10T03:43:45.428Z,3.53
2023-04-10T03:46:12.498Z,3.74
2023-04-10T03:48:44.026Z,3.65
2023-04-10T03:51:10.649Z,3.77
2023-04-10T03:53:37.643Z,3.74
2023-04-10T03:56:08.463Z,3.75
2023-04-10T03:58:35.768Z,3.83
2023-04-10T04:01:02.492Z,3.73
2023-04-10T04:03:34.917Z,3.78
2023-04-10T04:06:24.311Z,3.93
2023-04-10T04:09:09.304Z,3.94
2023-04-10T04:11:50.634Z,3.13
2023-04-10T04:14:37.268Z,3.49
2023-04-10T04:17:23.008Z,3.49
2023-04-10T04:20:15.610Z,3.37
2023-04-10T04:22:42.152Z,3.30
2023-04-10T04:25:15.487Z,3.39
2023-04-10T04:27:47.653Z,3.32
2023-04-10T04:30:32.355Z,3.15
2023-04-10T04:33:17.787Z,3.20
2023-04-10T04:35:58.036Z,3.46
2023-04-10T04:38:47.859Z,3.48
2023-04-10T04:41:32.268Z,3.02
2023-04-10T04:44:10.641Z,2.98
2023-04-10T04:46:50.776Z,3.29
2023-04-10T04:49:35.757Z,3.00
2023-04-10T04:52:12.689Z,2.94
2023-04-10T04:55:02.256Z,3.26
2023-04-10T04:57:57.651Z,3.17
2023-04-10T05:00:40.535Z,3.28
2023-04-10T05:03:19.339Z,3.22
2023-04-10T05:06:04.639Z,3.19
2023-04-10T05:08:57.196Z,3.19
2023-04-10T05:11:46.796Z,3.10
2023-04-10T05:14:38.724Z,3.15
2023-04-10T05:17:23.440Z,3.31
2023-04-10T05:19:57.442Z,3.25
2023-04-10T05:22:43.842Z,3.24
2023-04-10T05:25:35.704Z,3.35
2023-04-10T05:28:08.670Z,3.27
2023-04-10T05:30:54.147Z,3.17
2023-04-10T05:33:45.986Z,3.41
2023-04-10T05:36:35.457Z,3.04
2023-04-10T05:39:15.589Z,3.02
2023-04-10T05:41:58.323Z,3.08
2023-04-10T05:44:31.027Z,3.10
2023-04-10T05:47:04.426Z,3.42
2023-04-10T05:49:53.564Z,3.18
2023-04-10T05:52:38.536Z,3.21
2023-04-10T05:55:26.484Z,3.12
2023-04-10T05:58:12.778Z,3.35
2023-04-10T06:00:57.865Z,3.62
2023-04-10T06:03:44.944Z,3.64
2023-04-10T06:06:12.057Z,3.58
2023-04-10T06:08:40.558Z,3.84
2023-04-10T06:11:06.909Z,3.48
2023-04-10T06:13:33.901Z,3.71
2023-04-10T06:16:01.794Z,3.50
2023-04-10T06:18:29.706Z,3.69
2023-04-10T06:20:57.979Z,3.71
2023-04-10T06:23:24.419Z,3.75
2023-04-10T06:25:51.040Z,3.66
2023-04-10T06:28:17.882Z,3.80
2023-04-10T06:30:47.937Z,4.09
2023-04-10T06:33:14.304Z,4.21
2023-04-10T06:35:43.691Z,4.32
2023-04-10T06:38:10.456Z,4.56
2023-04-10T06:40:37.163Z,4.59
2023-04-10T06:43:03.524Z,4.62
2023-04-10T06:45:37.042Z,4.82
2023-04-10T06:48:04.132Z,4.91
2023-04-10T06:50:33.272Z,5.03
2023-04-10T06:52:59.893Z,5.12
2023-04-10T06:55:26.873Z,5.21
2023-04-10T06:57:53.227Z,5.48
2023-04-10T07:00:19.858Z,5.45
2023-04-10T07:02:46.358Z,5.61
2023-04-10T07:05:13.274Z,5.77
2023-04-10T07:07:39.619Z,5.90
2023-04-10T07:10:07.017Z,5.94
2023-04-10T07:12:33.623Z,5.98
2023-04-10T07:15:00.148Z,6.11
2023-04-10T07:17:26.510Z,6.27
2023-04-10T07:19:52.840Z,6.39
2023-04-10T07:22:19.187Z,6.57
2023-04-10T07:24:45.652Z,6.59
2023-04-10T07:27:12.781Z,6.78
2023-04-10T07:29:39.142Z,6.96
2023-04-10T07:32:05.959Z,7.05
2023-04-10T07:34:32.594Z,7.14
2023-04-10T07:36:58.943Z,7.27
2023-04-10T07:39:25.307Z,7.42
2023-04-10T07:41:54.154Z,7.55
2023-04-10T07:44:20.621Z,7.67
2023-04-10T07:46:47.427Z,7.83
2023-04-10T07:49:13.755Z,8.08
2023-04-10T07:51:40.172Z,8.11
2023-04-10T07:54:06.551Z,8.27
2023-04-10T07:56:32.846Z,8.42
2023-04-10T07:59:00.677Z,8.57
2023-04-10T08:01:28.596Z,8.65
2023-04-10T08:03:56.368Z,8.82
2023-04-10T08:06:23.083Z,8.97
2023-04-10T08:08:49.434Z,9.13
2023-04-10T08:11:32.360Z,9.23
2023-04-10T08:14:05.385Z,9.37
2023-04-10T08:16:34.130Z,9.56
2023-04-10T08:19:01.746Z,9.76
2023-04-10T08:21:29.772Z,9.79
2023-04-10T08:23:57.925Z,9.95
2023-04-10T08:26:25.994Z,10.15
2023-04-10T08:28:55.426Z,10.42
2023-04-10T08:31:23.388Z,10.73
2023-04-10T08:33:50.483Z,10.82
2023-04-10T08:36:19.616Z,11.04
2023-04-10T08:38:47.227Z,11.18
2023-04-10T08:41:15.824Z,11.17
2023-04-10T08:43:43.432Z,11.22
2023-04-10T08:46:09.940Z,11.42
2023-04-10T08:48:53.129Z,11.44
2023-04-10T08:51:26.371Z,11.50
2023-04-10T08:54:00.279Z,11.64
2023-04-10T08:56:27.079Z,11.65
2023-04-10T08:58:53.740Z,11.72
2023-04-10T09:01:21.423Z,11.71
2023-04-10T09:03:48.826Z,11.79
2023-04-10T09:06:15.327Z,11.86
2023-04-10T09:08:41.614Z,11.92
2023-04-10T09:11:08.032Z,11.90
2023-04-10T09:13:43.593Z,11.95
2023-04-10T09:16:11.217Z,11.97
2023-04-10T09:18:45.416Z,12.08
2023-04-10T09:21:18.324Z,12.11
2023-04-10T09:23:47.507Z,11.99
2023-04-10T09:26:24.382Z,12.27
2023-04-10T09:29:07.411Z,12.54
2023-04-10T09:31:35.828Z,12.62
2023-04-10T09:34:22.653Z,12.78
2023-04-10T09:36:59.894Z,12.64
2023-04-10T09:39:43.197Z,12.88
2023-04-10T09:42:11.403Z,13.03
2023-04-10T09:44:39.093Z,13.15
2023-04-10T09:47:14.592Z,13.32
2023-04-10T09:49:48.981Z,13.34
2023-04-10T09:52:19.698Z,13.38
2023-04-10T09:54:46.218Z,13.37
2023-04-10T09:57:19.009Z,13.49
2023-04-10T09:59:51.347Z,13.70
2023-04-10T10:02:24.633Z,14.17
2023-04-10T10:04:52.439Z,14.13
2023-04-10T10:07:21.021Z,14.40
2023-04-10T10:09:49.833Z,14.71
2023-04-10T10:12:24.324Z,14.77
2023-04-10T10:15:14.059Z,15.04
2023-04-10T10:17:49.437Z,15.17
2023-04-10T10:20:18.397Z,15.23
2023-04-10T10:22:46.395Z,15.32
2023-04-10T10:25:13.284Z,15.39
2023-04-10T10:27:41.511Z,15.36
2023-04-10T10:30:25.433Z,15.62
2023-04-10T10:32:56.205Z,15.60
2023-04-10T10:35:24.787Z,15.49
2023-04-10T10:37:52.951Z,15.37
2023-04-10T10:40:39.606Z,15.38
2023-04-10T10:43:13.198Z,15.48
2023-04-10T10:46:03.693Z,15.64
2023-04-10T10:48:30.068Z,15.86
2023-04-10T10:51:01.846Z,15.97
2023-04-10T10:53:40.376Z,15.99
2023-04-10T10:56:18.623Z,16.03
2023-04-10T10:58:53.427Z,15.96
2023-04-10T11:01:21.591Z,15.48
2023-04-10T11:03:48.644Z,15.59
2023-04-10T11:06:19.860Z,15.67
2023-04-10T11:08:49.755Z,15.53
2023-04-10T11:11:25.731Z,15.37
2023-04-10T11:13:57.984Z,15.32
2023-04-10T11:16:31.338Z,15.14
2023-04-10T11:19:13.871Z,15.21
2023-04-10T11:22:01.670Z,15.29
2023-04-10T11:24:29.588Z,15.42
2023-04-10T11:26:56.091Z,15.44
2023-04-10T11:29:28.447Z,15.59
2023-04-10T11:32:00.503Z,15.57
2023-04-10T11:34:27.628Z,15.37
2023-04-10T11:36:54.339Z,15.47
2023-04-10T11:39:21.470Z,15.46
2023-04-10T11:41:50.418Z,15.41
2023-04-10T11:44:22.539Z,15.77
2023-04-10T11:46:50.893Z,15.94
2023-04-10T11:49:26.367Z,16.12
2023-04-10T11:51:53.264Z,16.38
2023-04-10T11:54:21.773Z,16.64
2023-04-10T11:57:03.237Z,16.69
2023-04-10T11:59:30.905Z,17.02
2023-04-10T12:02:15.719Z,17.15
2023-04-10T12:04:43.684Z,17.36
2023-04-10T12:07:10.957Z,17.49
2023-04-10T12:09:37.436Z,17.49
2023-04-10T12:12:05.641Z,17.16
2023-04-10T12:14:39.352Z,17.15
2023-04-10T12:17:08.008Z,17.13
2023-04-10T12:19:35.361Z,17.17
2023-04-10T12:22:02.851Z,17.26
2023-04-10T12:24:46.170Z,17.26
2023-04-10T12:27:30.697Z,16.91
2023-04-10T12:29:58.569Z,16.84
2023-04-10T12:32:27.049Z,17.08
2023-04-10T12:34:58.225Z,17.31
2023-04-10T12:37:25.847Z,17.59
2023-04-10T12:39:52.415Z,17.51
2023-04-10T12:42:20.998Z,17.57
2023-04-10T12:44:58.837Z,17.58
2023-04-10T12:47:27.410Z,17.44
2023-04-10T12:50:10.909Z,17.27
2023-04-10T12:52:40.263Z,16.97
2023-04-10T12:55:14.436Z,16.70
2023-04-10T12:57:42.408Z,16.67
2023-04-10T13:00:11.152Z,16.58
2023-04-10T13:02:38.416Z,16.50
2023-04-10T13:05:06.149Z,16.18
2023-04-10T13:07:32.672Z,16.23
2023-04-10T13:09:59.726Z,16.06
2023-04-10T13:12:27.066Z,16.11
2023-04-10T13:14:54.329Z,16.20
2023-04-10T13:17:21.741Z,16.37
2023-04-10T13:19:48.200Z,16.30
2023-04-10T13:22:14.553Z,16.24
2023-04-10T13:24:41.708Z,16.38
2023-04-10T13:27:09.460Z,16.55
2023-04-10T13:29:36.856Z,16.63
2023-04-10T13:32:05.295Z,16.43
2023-04-10T13:34:32.842Z,16.73
2023-04-10T13:36:59.607Z,16.86
2023-04-10T13:39:26.900Z,16.90
2023-04-10T13:41:53.241Z,16.93
2023-04-10T13:44:19.620Z,16.70
2023-04-10T13:46:46.088Z,16.53
2023-04-10T13:49:16.892Z,16.48
2023-04-10T13:51:45.069Z,16.63
2023-04-10T13:54:11.477Z,16.34
2023-04-10T13:56:37.939Z,16.24
2023-04-10T13:59:05.429Z,16.32
2023-04-10T14:01:31.780Z,16.45
2023-04-10T14:03:58.188Z,16.25
2023-04-10T14:06:24.691Z,16.27
2023-04-10T14:08:51.008Z,16.16
2023-04-10T14:11:17.325Z,16.11
2023-04-10T14:13:43.601Z,16.11
2023-04-10T14:16:09.994Z,16.13
2023-04-10T14:18:37.123Z,16.07
2023-04-10T14:21:03.990Z,16.11
2023-04-10T14:23:30.294Z,16.08
2023-04-10T14:25:56.687Z,15.92
2023-04-10T14:28:22.996Z,15.89
2023-04-10T14:30:51.329Z,15.98
2023-04-10T14:33:20.021Z,15.82
2023-04-10T14:35:47.385Z,15.87
2023-04-10T14:38:13.770Z,15.85
2023-04-10T14:40:43.596Z,15.85
2023-04-10T14:43:09.938Z,15.84
2023-04-10T14:45:36.334Z,15.83
2023-04-10T14:48:03.087Z,15.75
2023-04-10T14:50:31.716Z,15.76
2023-04-10T14:52:59.997Z,15.74
2023-04-10T14:55:28.666Z,15.76
2023-04-10T14:57:56.069Z,15.79
2023-04-10T15:00:29.463Z,15.77
2023-04-10T15:02:58.862Z,15.86
2023-04-10T15:05:26.409Z,15.87
2023-04-10T15:07:53.016Z,15.85
2023-04-10T15:10:19.505Z,15.83
2023-04-10T15:12:45.851Z,15.81
2023-04-10T15:15:12.275Z,15.81
2023-04-10T15:17:38.639Z,15.79
2023-04-10T15:20:05.676Z,15.87
2023-04-10T15:22:32.026Z,15.84
2023-04-10T15:24:58.435Z,15.68
2023-04-10T15:27:24.776Z,15.58
2023-04-10T15:29:51.170Z,15.56
2023-04-10T15:32:17.554Z,15.49
2023-04-10T15:34:44.421Z,15.53
2023-04-10T15:37:11.493Z,15.65
2023-04-10T15:39:37.882Z,15.54
2023-04-10T15:42:05.924Z,15.47
2023-04-10T15:44:32.411Z,15.41
2023-04-10T15:46:58.712Z,15.41
2023-04-10T15:49:34.396Z,15.41
2023-04-10T15:52:03.576Z,15.38
2023-04-10T15:54:30.038Z,15.35
2023-04-10T15:56:57.347Z,15.32
2023-04-10T15:59:25.079Z,15.36
2023-04-10T16:01:51.513Z,15.43
2023-04-10T16:04:18.042Z,15.33
2023-04-10T16:06:44.395Z,15.31
2023-04-10T16:09:24.131Z,15.33
2023-04-10T16:11:51.552Z,15.32
2023-04-10T16:14:18.892Z,15.24
2023-04-10T16:16:45.590Z,15.18
2023-04-10T16:19:11.887Z,15.24
2023-04-10T16:21:38.226Z,15.14
2023-04-10T16:24:04.810Z,15.16
2023-04-10T16:26:31.189Z,15.07
2023-04-10T16:28:57.497Z,15.04
2023-04-10T16:31:24.218Z,15.00
2023-04-10T16:33:50.649Z,14.98
2023-04-10T16:36:17.450Z,14.94
2023-04-10T16:38:44.436Z,14.97
2023-04-10T16:41:12.284Z,14.93
2023-04-10T16:43:38.610Z,14.91
2023-04-10T16:46:05.186Z,14.93
2023-04-10T16:48:32.217Z,14.97
2023-04-10T16:51:05.560Z,14.96
2023-04-10T16:53:36.093Z,14.95
2023-04-10T16:56:04.786Z,14.92
2023-04-10T16:58:32.190Z,14.89
2023-04-10T17:00:58.753Z,14.88
2023-04-10T17:03:25.208Z,14.85
2023-04-10T17:05:51.539Z,14.80
2023-04-10T17:08:17.884Z,14.79
2023-04-10T17:10:44.193Z,14.76
2023-04-10T17:13:10.526Z,14.73
2023-04-10T17:15:36.822Z,14.74
2023-04-10T17:18:03.316Z,14.70
2023-04-10T17:20:30.732Z,14.65
2023-04-10T17:22:57.029Z,14.56
2023-04-10T17:25:23.397Z,14.53
2023-04-10T17:27:49.746Z,14.57
2023-04-10T17:30:16.116Z,14.51
2023-04-10T17:32:43.268Z,14.48
2023-04-10T17:35:09.636Z,14.40
2023-04-10T17:37:35.938Z,14.45
2023-04-10T17:40:02.283Z,14.40
2023-04-10T17:42:28.597Z,14.53
2023-04-10T17:44:54.932Z,14.50
2023-04-10T17:47:21.376Z,14.46
2023-04-10T17:49:47.777Z,14.43
2023-04-10T17:52:14.065Z,14.36
2023-04-10T17:54:41.142Z,14.36
2023-04-10T17:57:07.461Z,14.34
2023-04-10T17:59:33.776Z,14.34
2023-04-10T18:02:00.140Z,14.25
2023-04-10T18:04:26.470Z,14.29
2023-04-10T18:06:52.884Z,14.25
2023-04-10T18:09:19.244Z,14.23
2023-04-10T18:11:47.766Z,14.34
2023-04-10T18:14:14.064Z,14.32
2023-04-10T18:16:40.387Z,14.29
2023-04-10T18:19:07.122Z,14.18
2023-04-10T18:21:34.676Z,14.14
2023-04-10T18:24:00.971Z,14.30
2023-04-10T18:26:33.155Z,14.19
2023-04-10T18:29:00.827Z,14.20
2023-04-10T18:31:27.610Z,14.17
2023-04-10T18:34:06.618Z,14.14
2023-04-10T18:36:33.971Z,14.18
2023-04-10T18:39:00.465Z,14.14
2023-04-10T18:41:26.882Z,14.06
2023-04-10T18:44:01.708Z,14.08
2023-04-10T18:46:32.238Z,14.06
2023-04-10T18:48:58.832Z,14.01
2023-04-10T18:51:26.365Z,14.04
2023-04-10T18:53:53.059Z,14.06
2023-04-10T18:56:19.545Z,13.97
2023-04-10T18:58:47.564Z,13.90
2023-04-10T19:01:17.436Z,13.97
2023-04-10T19:03:43.934Z,13.92
2023-04-10T19:06:10.551Z,13.94
2023-04-10T19:08:37.188Z,13.98
2023-04-10T19:11:05.041Z,13.99
2023-04-10T19:13:31.403Z,13.95
2023-04-10T19:15:57.814Z,13.95
2023-04-10T19:18:24.182Z,13.99
2023-04-10T19:20:53.265Z,13.89
2023-04-10T19:23:20.609Z,13.90
2023-04-10T19:25:50.875Z,13.86
2023-04-10T19:28:17.223Z,13.84
2023-04-10T19:30:43.587Z,13.88
2023-04-10T19:33:09.953Z,13.82
2023-04-10T19:35:36.344Z,13.81
2023-04-10T19:38:02.724Z,13.82
2023-04-10T19:40:30.808Z,13.81
2023-04-10T19:42:59.409Z,13.79
2023-04-10T19:45:27.339Z,13.78
2023-04-10T19:47:53.730Z,13.73
2023-04-10T19:50:20.226Z,13.73
2023-04-10T19:52:46.595Z,13.86
2023-04-10T19:55:13.252Z,13.66
2023-04-10T19:57:40.169Z,13.67
2023-04-10T20:00:07.355Z,13.55
2023-04-10T20:02:38.684Z,13.52
2023-04-10T20:05:05.885Z,13.49
2023-04-10T20:07:32.273Z,13.49
2023-04-10T20:10:03.119Z,13.44
2023-04-10T20:12:35.892Z,13.44
2023-04-10T20:15:03.610Z,13.38
2023-04-10T20:17:29.990Z,13.31
2023-04-10T20:19:56.771Z,13.35
2023-04-10T20:22:23.204Z,13.37
2023-04-10T20:24:49.546Z,13.31
2023-04-10T20:27:15.887Z,13.30
2023-04-10T20:29:42.452Z,13.21
2023-04-10T20:32:09.459Z,13.18
2023-04-10T20:34:36.883Z,13.18
2023-04-10T20:37:03.708Z,13.18
2023-04-10T20:39:30.190Z,13.28
2023-04-10T20:41:57.102Z,13.23
2023-04-10T20:44:23.450Z,13.18
2023-04-10T20:46:50.393Z,13.13
2023-04-10T20:49:17.405Z,13.13
2023-04-10T20:51:43.705Z,13.05
2023-04-10T20:54:10.046Z,13.16
2023-04-10T20:56:42.964Z,13.12
2023-04-10T20:59:10.976Z,13.06
2023-04-10T21:01:37.423Z,13.14
2023-04-10T21:04:03.987Z,13.00
2023-04-10T21:06:33.058Z,12.99
2023-04-10T21:08:59.383Z,13.07
2023-04-10T21:11:26.946Z,13.11
2023-04-10T21:13:53.369Z,13.15
2023-04-10T21:16:19.753Z,13.10
2023-04-10T21:18:47.308Z,13.10
2023-04-10T21:21:13.608Z,13.07
2023-04-10T21:23:39.904Z,13.06
2023-04-10T21:26:06.992Z,13.09
2023-04-10T21:28:33.373Z,13.07
2023-04-10T21:30:59.683Z,13.14
2023-04-10T21:33:26.005Z,13.06
2023-04-10T21:35:52.388Z,13.16
2023-04-10T21:38:18.733Z,13.21
2023-04-10T21:40:52.194Z,13.13
2023-04-10T21:43:19.397Z,13.23
2023-04-10T21:45:45.777Z,13.12
2023-04-10T21:48:12.539Z,13.12
2023-04-10T21:50:39.724Z,13.04
2023-04-10T21:53:06.173Z,12.95
2023-04-10T21:55:32.448Z,12.99
2023-04-10T21:57:58.758Z,13.01
2023-04-10T22:00:25.100Z,12.91
2023-04-10T22:02:51.835Z,12.97
2023-04-10T22:05:18.550Z,12.93
2023-04-10T22:07:44.928Z,12.97
2023-04-10T22:10:11.609Z,12.86
2023-04-10T22:12:37.937Z,12.75
2023-04-10T22:15:05.056Z,12.79
2023-04-10T22:17:31.356Z,12.60
2023-04-10T22:19:57.725Z,12.62
2023-04-10T22:22:24.157Z,12.53
2023-04-10T22:24:50.831Z,12.53
2023-04-10T22:27:17.214Z,12.50
2023-04-10T22:29:47.710Z,12.49
2023-04-10T22:32:19.490Z,12.53
2023-04-10T22:34:45.787Z,12.39
2023-04-10T22:37:12.079Z,12.37
2023-04-10T22:39:38.481Z,12.32
2023-04-10T22:42:04.816Z,12.24
2023-04-10T22:44:31.153Z,12.25
2023-04-10T22:46:57.465Z,12.21
2023-04-10T22:49:23.921Z,12.16
2023-04-10T22:51:50.324Z,12.13
2023-04-10T22:54:16.697Z,12.11
2023-04-10T22:56:43.969Z,12.04
2023-04-10T22:59:10.744Z,11.99
2023-04-10T23:01:37.126Z,11.98
2023-04-10T23:04:03.546Z,11.78
2023-04-10T23:06:31.610Z,11.66
2023-04-10T23:08:58.097Z,11.72
2023-04-10T23:11:24.644Z,11.73
2023-04-10T23:13:50.945Z,11.70
2023-04-10T23:16:17.315Z,11.65
2023-04-10T23:18:43.692Z,11.56
2023-04-10T23:21:10.037Z,11.49
2023-04-10T23:23:36.341Z,11.59
2023-04-10T23:26:02.771Z,11.55
2023-04-10T23:28:29.195Z,11.37
2023-04-10T23:30:55.554Z,11.33
2023-04-10T23:33:22.179Z,11.60
2023-04-10T23:35:48.571Z,11.38
2023-04-10T23:38:15.605Z,11.21
2023-04-10T23:40:41.953Z,11.40
2023-04-10T23:43:08.303Z,11.64
2023-04-10T23:45:34.597Z,11.70
2023-04-10T23:48:00.898Z,11.67
2023-04-10T23:50:27.508Z,11.53
2023-04-10T23:52:54.053Z,11.31
2023-04-10T23:55:21.461Z,11.59
2023-04-10T23:57:47.755Z,11.65
